sensor_id;sensor_type;location;lat;lon;timestamp;pressure;altitude;pressure_sealevel;temperature;humidity
37132;BME280;23035;50.032;21.978;2023-05-03T00:02:55;66401.09;;;11.65;100.00
37132;BME280;23035;50.032;21.978;2023-05-03T00:07:59;66479.59;;;12.42;100.00
37132;BME280;23035;50.032;21.978;2023-05-03T00:13:05;66453.91;;;12.20;100.00
37132;BME280;23035;50.032;21.978;2023-05-03T00:18:09;66460.25;;;12.24;100.00
37132;BME280;23035;50.032;21.978;2023-05-03T00:23:13;66436.16;;;12.03;100.00
37132;BME280;23035;50.032;21.978;2023-05-03T00:28:19;66477.97;;;12.41;100.00
37132;BME280;23035;50.032;21.978;2023-05-03T00:33:23;66468.38;;;12.34;100.00
37132;BME280;23035;50.032;21.978;2023-05-03T00:38:27;66493.63;;;12.58;100.00
37132;BME280;23035;50.032;21.978;2023-05-03T00:43:33;66491.94;;;12.54;100.00
37132;BME280;23035;50.032;21.978;2023-05-03T00:48:37;66484.88;;;12.45;100.00
37132;BME280;23035;50.032;21.978;2023-05-03T00:53:41;66474.13;;;12.34;100.00
37132;BME280;23035;50.032;21.978;2023-05-03T00:58:47;66458.66;;;12.22;100.00
37132;BME280;23035;50.032;21.978;2023-05-03T01:03:51;66458.09;;;12.22;100.00
37132;BME280;23035;50.032;21.978;2023-05-03T01:08:58;66423.38;;;11.94;100.00
37132;BME280;23035;50.032;21.978;2023-05-03T01:14:11;66442.00;;;12.06;100.00
37132;BME280;23035;50.032;21.978;2023-05-03T01:19:27;66428.03;;;11.93;100.00
37132;BME280;23035;50.032;21.978;2023-05-03T01:24:33;66437.63;;;12.00;100.00
37132;BME280;23035;50.032;21.978;2023-05-03T01:29:41;66310.38;;;10.79;100.00
37132;BME280;23035;50.032;21.978;2023-05-03T01:34:50;66342.50;;;11.07;100.00
37132;BME280;23035;50.032;21.978;2023-05-03T01:40:01;66318.53;;;10.89;100.00
37132;BME280;23035;50.032;21.978;2023-05-03T01:45:09;66280.44;;;10.53;100.00
37132;BME280;23035;50.032;21.978;2023-05-03T01:50:13;66295.91;;;10.66;100.00
37132;BME280;23035;50.032;21.978;2023-05-03T01:55:18;66259.00;;;10.33;100.00
37132;BME280;23035;50.032;21.978;2023-05-03T02:00:23;66282.13;;;10.57;100.00
37132;BME280;23035;50.032;21.978;2023-05-03T02:05:27;66247.28;;;10.24;100.00
37132;BME280;23035;50.032;21.978;2023-05-03T02:10:32;66267.66;;;10.44;100.00
37132;BME280;23035;50.032;21.978;2023-05-03T02:15:37;66251.03;;;10.28;100.00
37132;BME280;23035;50.032;21.978;2023-05-03T02:20:44;66247.19;;;10.22;100.00
37132;BME280;23035;50.032;21.978;2023-05-03T02:25:48;66244.03;;;10.21;100.00
37132;BME280;23035;50.032;21.978;2023-05-03T02:30:53;66248.88;;;10.26;100.00
37132;BME280;23035;50.032;21.978;2023-05-03T02:35:58;66262.38;;;10.41;100.00
37132;BME280;23035;50.032;21.978;2023-05-03T02:41:02;66257.38;;;10.31;100.00
37132;BME280;23035;50.032;21.978;2023-05-03T02:46:08;66281.53;;;10.54;100.00
37132;BME280;23035;50.032;21.978;2023-05-03T02:51:12;66253.72;;;10.30;100.00
37132;BME280;23035;50.032;21.978;2023-05-03T02:56:16;66247.81;;;10.25;100.00
37132;BME280;23035;50.032;21.978;2023-05-03T03:01:21;66246.53;;;10.19;100.00
37132;BME280;23035;50.032;21.978;2023-05-03T03:06:26;66318.16;;;10.94;100.00
37132;BME280;23035;50.032;21.978;2023-05-03T03:11:30;66302.50;;;10.77;100.00
37132;BME280;23035;50.032;21.978;2023-05-03T03:16:35;66326.41;;;10.92;100.00
37132;BME280;23035;50.032;21.978;2023-05-03T03:21:39;66344.34;;;11.16;100.00
37132;BME280;23035;50.032;21.978;2023-05-03T03:26:43;66406.09;;;11.75;100.00
37132;BME280;23035;50.032;21.978;2023-05-03T03:31:50;66442.44;;;12.04;100.00
37132;BME280;23035;50.032;21.978;2023-05-03T03:36:55;66383.00;;;11.53;100.00
37132;BME280;23035;50.032;21.978;2023-05-03T03:42:01;66374.41;;;11.45;100.00
37132;BME280;23035;50.032;21.978;2023-05-03T03:47:07;66422.75;;;11.91;100.00
37132;BME280;23035;50.032;21.978;2023-05-03T03:52:12;66480.66;;;12.43;100.00
37132;BME280;23035;50.032;21.978;2023-05-03T03:57:16;66467.84;;;12.33;100.00
37132;BME280;23035;50.032;21.978;2023-05-03T04:02:22;66468.31;;;12.31;100.00
37132;BME280;23035;50.032;21.978;2023-05-03T04:07:26;66461.72;;;12.20;100.00
37132;BME280;23035;50.032;21.978;2023-05-03T04:12:30;66475.19;;;12.35;100.00
37132;BME280;23035;50.032;21.978;2023-05-03T04:17:37;66407.16;;;11.76;100.00
37132;BME280;23035;50.032;21.978;2023-05-03T04:22:44;66363.59;;;11.32;100.00
37132;BME280;23035;50.032;21.978;2023-05-03T04:27:50;66339.44;;;11.09;100.00
37132;BME280;23035;50.032;21.978;2023-05-03T04:32:58;66336.31;;;11.09;100.00
37132;BME280;23035;50.032;21.978;2023-05-03T04:38:07;66363.59;;;11.32;100.00
37132;BME280;23035;50.032;21.978;2023-05-03T04:43:12;66338.44;;;11.11;100.00
37132;BME280;23035;50.032;21.978;2023-05-03T04:48:21;66471.59;;;12.37;100.00
37132;BME280;23035;50.032;21.978;2023-05-03T04:53:25;66484.88;;;12.45;100.00
37132;BME280;23035;50.032;21.978;2023-05-03T04:58:43;66442.06;;;12.09;100.00
37132;BME280;23035;50.032;21.978;2023-05-03T05:03:51;66517.28;;;12.80;100.00
37132;BME280;23035;50.032;21.978;2023-05-03T05:09:00;66463.47;;;12.27;100.00
37132;BME280;23035;50.032;21.978;2023-05-03T05:14:04;66382.38;;;11.50;100.00
37132;BME280;23035;50.032;21.978;2023-05-03T05:19:11;66431.78;;;11.97;100.00
37132;BME280;23035;50.032;21.978;2023-05-03T05:24:15;66502.75;;;12.67;100.00
37132;BME280;23035;50.032;21.978;2023-05-03T05:29:19;66615.19;;;13.75;100.00
37132;BME280;23035;50.032;21.978;2023-05-03T05:34:25;66493.09;;;12.57;100.00
37132;BME280;23035;50.032;21.978;2023-05-03T05:39:29;66525.88;;;12.88;100.00
37132;BME280;23035;50.032;21.978;2023-05-03T05:44:33;66529.09;;;12.91;100.00
37132;BME280;23035;50.032;21.978;2023-05-03T05:49:39;66481.81;;;12.47;100.00
37132;BME280;23035;50.032;21.978;2023-05-03T05:54:43;66457.19;;;12.26;100.00
37132;BME280;23035;50.032;21.978;2023-05-03T05:59:48;66457.13;;;12.23;100.00
37132;BME280;23035;50.032;21.978;2023-05-03T06:04:56;66510.22;;;12.71;100.00
37132;BME280;23035;50.032;21.978;2023-05-03T06:10:01;66365.28;;;11.36;100.00
37132;BME280;23035;50.032;21.978;2023-05-03T06:15:07;66311.03;;;10.82;100.00
37132;BME280;23035;50.032;21.978;2023-05-03T06:20:13;66286.97;;;10.62;100.00
37132;BME280;23035;50.032;21.978;2023-05-03T06:25:18;66292.41;;;10.70;100.00
37132;BME280;23035;50.032;21.978;2023-05-03T06:30:24;66343.75;;;11.13;100.00
37132;BME280;23035;50.032;21.978;2023-05-03T06:35:37;66423.81;;;11.92;100.00
37132;BME280;23035;50.032;21.978;2023-05-03T06:40:41;66404.84;;;11.69;100.00
37132;BME280;23035;50.032;21.978;2023-05-03T06:45:45;66392.03;;;11.59;100.00
37132;BME280;23035;50.032;21.978;2023-05-03T06:50:51;66342.56;;;11.10;100.00
37132;BME280;23035;50.032;21.978;2023-05-03T06:55:55;66366.75;;;11.33;100.00
37132;BME280;23035;50.032;21.978;2023-05-03T07:01:00;66349.72;;;11.22;100.00
37132;BME280;23035;50.032;21.978;2023-05-03T07:06:06;66329.88;;;11.03;100.00
37132;BME280;23035;50.032;21.978;2023-05-03T07:11:10;66381.22;;;11.46;100.00
37132;BME280;23035;50.032;21.978;2023-05-03T07:16:14;66350.63;;;11.17;100.00
37132;BME280;23035;50.032;21.978;2023-05-03T07:21:19;66359.84;;;11.29;100.00
37132;BME280;23035;50.032;21.978;2023-05-03T07:26:23;66377.09;;;11.47;100.00
37132;BME280;23035;50.032;21.978;2023-05-03T07:31:28;66438.84;;;12.06;100.00
37132;BME280;23035;50.032;21.978;2023-05-03T07:36:34;66464.09;;;12.30;100.00
37132;BME280;23035;50.032;21.978;2023-05-03T07:41:38;66415.16;;;11.81;100.00
37132;BME280;23035;50.032;21.978;2023-05-03T07:46:42;66407.06;;;11.73;100.00
37132;BME280;23035;50.032;21.978;2023-05-03T07:51:48;66470.00;;;12.35;100.00
37132;BME280;23035;50.032;21.978;2023-05-03T07:56:51;66532.84;;;12.95;100.00
37132;BME280;23035;50.032;21.978;2023-05-03T08:01:57;66576.84;;;13.34;100.00
37132;BME280;23035;50.032;21.978;2023-05-03T08:07:05;66593.59;;;13.53;100.00
37132;BME280;23035;50.032;21.978;2023-05-03T08:12:09;66466.78;;;12.32;100.00
37132;BME280;23035;50.032;21.978;2023-05-03T08:17:13;66430.19;;;11.95;100.00
37132;BME280;23035;50.032;21.978;2023-05-03T08:22:19;66361.53;;;11.33;100.00
37132;BME280;23035;50.032;21.978;2023-05-03T08:27:22;66338.81;;;11.06;100.00
37132;BME280;23035;50.032;21.978;2023-05-03T08:32:30;66324.44;;;10.95;100.00
37132;BME280;23035;50.032;21.978;2023-05-03T08:37:39;66321.84;;;10.95;100.00
37132;BME280;23035;50.032;21.978;2023-05-03T08:42:44;66349.09;;;11.18;100.00
37132;BME280;23035;50.032;21.978;2023-05-03T08:47:52;66402.78;;;11.69;100.00
37132;BME280;23035;50.032;21.978;2023-05-03T08:52:58;66460.25;;;12.24;100.00
37132;BME280;23035;50.032;21.978;2023-05-03T08:58:02;66500.63;;;12.64;100.00
37132;BME280;23035;50.032;21.978;2023-05-03T09:03:12;66493.53;;;12.55;100.00
37132;BME280;23035;50.032;21.978;2023-05-03T09:08:17;66497.31;;;12.59;100.00
37132;BME280;23035;50.032;21.978;2023-05-03T09:13:29;66506.97;;;12.68;100.00
37132;BME280;23035;50.032;21.978;2023-05-03T09:18:33;66493.09;;;12.57;100.00
37132;BME280;23035;50.032;21.978;2023-05-03T09:23:38;66478.97;;;12.39;100.00
37132;BME280;23035;50.032;21.978;2023-05-03T09:28:42;66518.88;;;12.82;100.00
37132;BME280;23035;50.032;21.978;2023-05-03T09:33:47;66516.81;;;12.82;100.00
37132;BME280;23035;50.032;21.978;2023-05-03T09:38:53;66525.25;;;12.85;100.00
37132;BME280;23035;50.032;21.978;2023-05-03T09:43:58;66509.91;;;12.78;100.00
37132;BME280;23035;50.032;21.978;2023-05-03T09:49:04;66475.19;;;12.35;100.00
37132;BME280;23035;50.032;21.978;2023-05-03T09:54:13;66482.44;;;12.50;100.00
37132;BME280;23035;50.032;21.978;2023-05-03T09:59:18;66614.03;;;13.72;100.00
37132;BME280;23035;50.032;21.978;2023-05-03T10:04:24;66557.03;;;13.18;100.00
37132;BME280;23035;50.032;21.978;2023-05-03T10:09:34;66386.84;;;11.59;100.00
37132;BME280;23035;50.032;21.978;2023-05-03T10:14:42;66382.38;;;11.50;100.00
37132;BME280;23035;50.032;21.978;2023-05-03T10:19:50;66348.66;;;11.20;100.00
37132;BME280;23035;50.032;21.978;2023-05-03T10:25:09;66338.81;;;11.06;100.00
37132;BME280;23035;50.032;21.978;2023-05-03T10:30:31;66321.22;;;10.92;100.00
37132;BME280;23035;50.032;21.978;2023-05-03T10:35:39;66298.22;;;10.73;100.00
37132;BME280;23035;50.032;21.978;2023-05-03T10:40:44;66286.88;;;10.59;100.00
37132;BME280;23035;50.032;21.978;2023-05-03T10:45:50;66300.81;;;10.73;100.00
37132;BME280;23035;50.032;21.978;2023-05-03T10:50:55;66336.69;;;11.04;100.00
37132;BME280;23035;50.032;21.978;2023-05-03T10:56:01;66340.06;;;11.12;100.00
37132;BME280;23035;50.032;21.978;2023-05-03T11:01:09;66318.16;;;10.94;100.00
37132;BME280;23035;50.032;21.978;2023-05-03T11:06:26;66301.00;;;10.78;100.00
37132;BME280;23035;50.032;21.978;2023-05-03T11:11:34;66295.09;;;10.72;100.00
37132;BME280;23035;50.032;21.978;2023-05-03T11:16:39;66317.00;;;10.90;100.00
37132;BME280;23035;50.032;21.978;2023-05-03T11:21:50;66301.44;;;10.76;100.00
37132;BME280;23035;50.032;21.978;2023-05-03T11:26:55;66347.56;;;11.19;100.00
37132;BME280;23035;50.032;21.978;2023-05-03T11:32:00;66375.47;;;11.46;100.00
37132;BME280;23035;50.032;21.978;2023-05-03T11:37:07;66375.41;;;11.43;100.00
37132;BME280;23035;50.032;21.978;2023-05-03T11:42:14;66302.97;;;10.75;100.00
37132;BME280;23035;50.032;21.978;2023-05-03T11:47:18;66300.00;;;10.79;100.00
37132;BME280;23035;50.032;21.978;2023-05-03T11:52:24;66343.22;;;11.13;100.00
37132;BME280;23035;50.032;21.978;2023-05-03T11:57:30;66400.16;;;11.69;100.00
37132;BME280;23035;50.032;21.978;2023-05-03T12:02:35;66521.41;;;12.79;100.00
37132;BME280;23035;50.032;21.978;2023-05-03T12:07:39;66443.16;;;12.10;100.00
37132;BME280;23035;50.032;21.978;2023-05-03T12:12:54;66448.06;;;12.17;100.00
37132;BME280;23035;50.032;21.978;2023-05-03T12:18:04;66390.06;;;11.62;100.00
37132;BME280;23035;50.032;21.978;2023-05-03T12:23:11;66441.09;;;12.11;100.00
37132;BME280;23035;50.032;21.978;2023-05-03T12:28:19;66415.31;;;11.86;100.00
37132;BME280;23035;50.032;21.978;2023-05-03T12:33:24;66402.88;;;11.72;100.00
37132;BME280;23035;50.032;21.978;2023-05-03T12:38:30;66452.72;;;12.17;100.00
37132;BME280;23035;50.032;21.978;2023-05-03T12:43:40;66497.94;;;12.62;100.00
37132;BME280;23035;50.032;21.978;2023-05-03T12:48:45;66467.31;;;12.33;100.00
37132;BME280;23035;50.032;21.978;2023-05-03T12:53:49;66440.38;;;12.05;100.00
37132;BME280;23035;50.032;21.978;2023-05-03T12:58:58;66359.41;;;11.31;100.00
37132;BME280;23035;50.032;21.978;2023-05-03T13:04:22;66374.41;;;11.45;100.00
37132;BME280;23035;50.032;21.978;2023-05-03T13:09:29;66394.88;;;11.67;100.00
37132;BME280;23035;50.032;21.978;2023-05-03T13:14:54;66419.97;;;11.86;100.00
37132;BME280;23035;50.032;21.978;2023-05-03T13:19:58;66408.75;;;11.77;100.00
37132;BME280;23035;50.032;21.978;2023-05-03T13:25:03;66383.91;;;11.49;100.00
37132;BME280;23035;50.032;21.978;2023-05-03T13:30:10;66404.00;;;11.75;100.00
37132;BME280;23035;50.032;21.978;2023-05-03T13:35:16;66465.72;;;12.31;100.00
37132;BME280;23035;50.032;21.978;2023-05-03T13:40:20;66363.69;;;11.35;100.00
37132;BME280;23035;50.032;21.978;2023-05-03T13:45:27;66325.03;;;10.98;100.00
37132;BME280;23035;50.032;21.978;2023-05-03T13:50:31;66409.94;;;11.81;100.00
37132;BME280;23035;50.032;21.978;2023-05-03T13:55:35;66391.59;;;11.61;100.00
37132;BME280;23035;50.032;21.978;2023-05-03T14:00:41;66380.94;;;11.54;100.00
37132;BME280;23035;50.032;21.978;2023-05-03T14:05:45;66370.56;;;11.39;100.00
37132;BME280;23035;50.032;21.978;2023-05-03T14:10:49;66432.41;;;12.00;100.00
37132;BME280;23035;50.032;21.978;2023-05-03T14:15:55;66412.16;;;11.86;100.00
37132;BME280;23035;50.032;21.978;2023-05-03T14:20:59;66438.25;;;12.03;100.00
37132;BME280;23035;50.032;21.978;2023-05-03T14:26:04;66432.41;;;12.00;100.00
37132;BME280;23035;50.032;21.978;2023-05-03T14:31:09;66386.94;;;11.62;100.00
37132;BME280;23035;50.032;21.978;2023-05-03T14:36:14;66318.69;;;10.95;100.00
37132;BME280;23035;50.032;21.978;2023-05-03T14:41:18;66323.50;;;10.99;100.00
37132;BME280;23035;50.032;21.978;2023-05-03T14:46:24;66330.41;;;11.03;100.00
37132;BME280;23035;50.032;21.978;2023-05-03T14:51:28;66277.94;;;10.56;100.00
37132;BME280;23035;50.032;21.978;2023-05-03T14:56:33;66324.06;;;11.00;100.00
37132;BME280;23035;50.032;21.978;2023-05-03T15:01:39;66342.75;;;11.15;100.00
37132;BME280;23035;50.032;21.978;2023-05-03T15:06:43;66363.16;;;11.34;100.00
37132;BME280;23035;50.032;21.978;2023-05-03T15:11:47;66414.25;;;11.85;100.00
37132;BME280;23035;50.032;21.978;2023-05-03T15:16:53;66348.22;;;11.23;100.00
37132;BME280;23035;50.032;21.978;2023-05-03T15:21:57;66305.72;;;10.80;100.00
37132;BME280;23035;50.032;21.978;2023-05-03T15:27:01;66338.00;;;11.13;100.00
37132;BME280;23035;50.032;21.978;2023-05-03T15:32:07;66358.69;;;11.25;100.00
37132;BME280;23035;50.032;21.978;2023-05-03T15:37:11;66315.38;;;10.89;100.00
37132;BME280;23035;50.032;21.978;2023-05-03T15:42:15;66283.81;;;10.61;100.00
37132;BME280;23035;50.032;21.978;2023-05-03T15:47:20;66338.91;;;11.09;100.00
37132;BME280;23035;50.032;21.978;2023-05-03T15:52:25;66377.09;;;11.47;100.00
37132;BME280;23035;50.032;21.978;2023-05-03T15:57:29;66419.44;;;11.85;100.00
37132;BME280;23035;50.032;21.978;2023-05-03T16:02:35;66424.91;;;11.93;100.00
37132;BME280;23035;50.032;21.978;2023-05-03T16:07:39;66362.00;;;11.31;100.00
37132;BME280;23035;50.032;21.978;2023-05-03T16:12:43;66421.69;;;11.90;100.00
37132;BME280;23035;50.032;21.978;2023-05-03T16:17:48;66403.41;;;11.72;100.00
37132;BME280;23035;50.032;21.978;2023-05-03T16:22:56;66328.88;;;11.04;100.00
37132;BME280;23035;50.032;21.978;2023-05-03T16:27:59;66326.75;;;11.02;100.00
37132;BME280;23035;50.032;21.978;2023-05-03T16:33:05;66336.31;;;11.09;100.00
37132;BME280;23035;50.032;21.978;2023-05-03T16:38:10;66305.13;;;10.77;100.00
37132;BME280;23035;50.032;21.978;2023-05-03T16:43:14;66306.25;;;10.80;100.00
37132;BME280;23035;50.032;21.978;2023-05-03T16:48:21;66221.34;;;9.95;100.00
37132;BME280;23035;50.032;21.978;2023-05-03T16:53:25;66229.56;;;10.07;100.00
37132;BME280;23035;50.032;21.978;2023-05-03T16:58:29;66226.97;;;10.07;100.00
37132;BME280;23035;50.032;21.978;2023-05-03T17:03:34;66209.38;;;9.93;100.00
37132;BME280;23035;50.032;21.978;2023-05-03T17:08:38;66166.31;;;9.47;100.00
37132;BME280;23035;50.032;21.978;2023-05-03T17:13:43;66159.78;;;9.39;100.00
37132;BME280;23035;50.032;21.978;2023-05-03T17:18:50;66140.59;;;9.23;100.00
37132;BME280;23035;50.032;21.978;2023-05-03T17:23:54;66118.09;;;9.02;100.00
37132;BME280;23035;50.032;21.978;2023-05-03T17:28:58;66166.31;;;9.47;100.00
37132;BME280;23035;50.032;21.978;2023-05-03T17:34:04;66140.59;;;9.23;100.00
37132;BME280;23035;50.032;21.978;2023-05-03T17:39:08;66127.28;;;9.13;100.00
37132;BME280;23035;50.032;21.978;2023-05-03T17:44:12;66173.28;;;9.54;100.00
37132;BME280;23035;50.032;21.978;2023-05-03T17:49:18;66206.41;;;9.83;100.00
37132;BME280;23035;50.032;21.978;2023-05-03T17:54:23;66195.25;;;9.75;100.00
37132;BME280;23035;50.032;21.978;2023-05-03T17:59:27;66210.34;;;9.92;100.00
37132;BME280;23035;50.032;21.978;2023-05-03T18:04:32;66230.56;;;10.06;100.00
37132;BME280;23035;50.032;21.978;2023-05-03T18:09:36;66291.78;;;10.67;100.00
37132;BME280;23035;50.032;21.978;2023-05-03T18:14:41;66284.19;;;10.57;100.00
37132;BME280;23035;50.032;21.978;2023-05-03T18:19:46;66238.22;;;10.18;100.00
37132;BME280;23035;50.032;21.978;2023-05-03T18:24:53;66292.31;;;10.67;100.00
37132;BME280;23035;50.032;21.978;2023-05-03T18:29:57;66313.69;;;10.85;100.00
37132;BME280;23035;50.032;21.978;2023-05-03T18:35:03;66338.56;;;11.13;100.00
37132;BME280;23035;50.032;21.978;2023-05-03T18:40:08;66203.75;;;9.81;100.00
37132;BME280;23035;50.032;21.978;2023-05-03T18:45:12;66211.34;;;9.90;100.00
37132;BME280;23035;50.032;21.978;2023-05-03T18:50:20;66285.88;;;10.61;100.00
37132;BME280;23035;50.032;21.978;2023-05-03T18:55:24;66310.56;;;10.84;100.00
37132;BME280;23035;50.032;21.978;2023-05-03T19:00:28;66303.06;;;10.77;100.00
37132;BME280;23035;50.032;21.978;2023-05-03T19:05:34;66310.03;;;10.84;100.00
37132;BME280;23035;50.032;21.978;2023-05-03T19:10:38;66313.78;;;10.87;100.00
37132;BME280;23035;50.032;21.978;2023-05-03T19:15:42;66314.78;;;10.86;100.00
37132;BME280;23035;50.032;21.978;2023-05-03T19:20:48;66326.56;;;10.97;100.00
37132;BME280;23035;50.032;21.978;2023-05-03T19:25:53;66333.81;;;11.11;100.00
37132;BME280;23035;50.032;21.978;2023-05-03T19:31:01;66353.56;;;11.28;100.00
37132;BME280;23035;50.032;21.978;2023-05-03T19:36:11;66351.03;;;11.30;100.00
37132;BME280;23035;50.032;21.978;2023-05-03T19:41:14;66358.75;;;11.28;100.00
37132;BME280;23035;50.032;21.978;2023-05-03T19:46:18;66343.75;;;11.13;100.00
37132;BME280;23035;50.032;21.978;2023-05-03T19:51:24;66339.00;;;11.11;100.00
37132;BME280;23035;50.032;21.978;2023-05-03T19:56:29;66285.44;;;10.63;100.00
37132;BME280;23035;50.032;21.978;2023-05-03T20:01:33;66334.34;;;11.12;100.00
37132;BME280;23035;50.032;21.978;2023-05-03T20:06:38;66364.75;;;11.36;100.00
37132;BME280;23035;50.032;21.978;2023-05-03T20:11:42;66344.53;;;11.22;100.00
37132;BME280;23035;50.032;21.978;2023-05-03T20:16:46;66301.44;;;10.76;100.00
37132;BME280;23035;50.032;21.978;2023-05-03T20:21:51;66385.69;;;11.56;100.00
37132;BME280;23035;50.032;21.978;2023-05-03T20:26:55;66406.09;;;11.75;100.00
37132;BME280;23035;50.032;21.978;2023-05-03T20:31:59;66432.56;;;12.05;100.00
37132;BME280;23035;50.032;21.978;2023-05-03T20:37:05;66428.66;;;11.96;100.00
37132;BME280;23035;50.032;21.978;2023-05-03T20:42:09;66432.50;;;12.02;100.00
37132;BME280;23035;50.032;21.978;2023-05-03T20:47:13;66471.53;;;12.34;100.00
37132;BME280;23035;50.032;21.978;2023-05-03T20:52:19;66442.16;;;12.12;100.00
37132;BME280;23035;50.032;21.978;2023-05-03T20:57:23;66471.16;;;12.39;100.00
37132;BME280;23035;50.032;21.978;2023-05-03T21:02:27;66428.72;;;11.99;100.00
37132;BME280;23035;50.032;21.978;2023-05-03T21:07:35;66435.63;;;12.03;100.00
37132;BME280;23035;50.032;21.978;2023-05-03T21:12:40;66424.91;;;11.93;100.00
37132;BME280;23035;50.032;21.978;2023-05-03T21:17:44;66422.28;;;11.93;100.00
37132;BME280;23035;50.032;21.978;2023-05-03T21:22:51;66429.91;;;12.02;100.00
37132;BME280;23035;50.032;21.978;2023-05-03T21:27:55;66443.69;;;12.11;100.00
37132;BME280;23035;50.032;21.978;2023-05-03T21:32:59;66452.81;;;12.19;100.00
37132;BME280;23035;50.032;21.978;2023-05-03T21:38:04;66436.84;;;12.09;100.00
37132;BME280;23035;50.032;21.978;2023-05-03T21:43:09;66416.84;;;11.85;100.00
37132;BME280;23035;50.032;21.978;2023-05-03T21:48:12;66413.69;;;11.85;100.00
37132;BME280;23035;50.032;21.978;2023-05-03T21:53:18;66463.63;;;12.32;100.00
37132;BME280;23035;50.032;21.978;2023-05-03T21:58:22;66421.84;;;11.95;100.00
37132;BME280;23035;50.032;21.978;2023-05-03T22:03:26;66419.50;;;11.88;100.00
37132;BME280;23035;50.032;21.978;2023-05-03T22:08:31;66363.75;;;11.37;100.00
37132;BME280;23035;50.032;21.978;2023-05-03T22:13:35;66294.66;;;10.74;100.00
37132;BME280;23035;50.032;21.978;2023-05-03T22:18:59;66415.38;;;11.89;100.00
37132;BME280;23035;50.032;21.978;2023-05-03T22:24:06;66376.03;;;11.46;100.00
37132;BME280;23035;50.032;21.978;2023-05-03T22:29:10;66381.56;;;11.57;100.00
37132;BME280;23035;50.032;21.978;2023-05-03T22:34:15;66391.59;;;11.61;100.00
37132;BME280;23035;50.032;21.978;2023-05-03T22:39:20;66373.50;;;11.49;100.00
37132;BME280;23035;50.032;21.978;2023-05-03T22:44:24;66378.94;;;11.57;100.00
37132;BME280;23035;50.032;21.978;2023-05-03T22:49:28;66373.34;;;11.44;100.00
37132;BME280;23035;50.032;21.978;2023-05-03T22:54:33;66372.34;;;11.45;100.00
37132;BME280;23035;50.032;21.978;2023-05-03T22:59:37;66348.75;;;11.23;100.00
37132;BME280;23035;50.032;21.978;2023-05-03T23:04:41;66337.91;;;11.10;100.00
37132;BME280;23035;50.032;21.978;2023-05-03T23:09:47;66279.09;;;10.59;100.00
37132;BME280;23035;50.032;21.978;2023-05-03T23:14:51;66195.25;;;9.75;100.00
37132;BME280;23035;50.032;21.978;2023-05-03T23:19:55;66232.31;;;10.13;100.00
37132;BME280;23035;50.032;21.978;2023-05-03T23:25:00;66169.53;;;9.51;100.00
37132;BME280;23035;50.032;21.978;2023-05-03T23:30:06;66160.41;;;9.42;100.00
37132;BME280;23035;50.032;21.978;2023-05-03T23:35:11;66100.50;;;8.87;100.00
37132;BME280;23035;50.032;21.978;2023-05-03T23:40:16;66164.25;;;9.48;100.00
37132;BME280;23035;50.032;21.978;2023-05-03T23:45:20;66202.75;;;9.82;100.00
37132;BME280;23035;50.032;21.978;2023-05-03T23:50:24;66071.13;;;8.62;100.00
37132;BME280;23035;50.032;21.978;2023-05-03T23:55:30;66036.78;;;8.27;100.00
